sensor_id;sensor_type;location;lat;lon;timestamp;temperature;humidity
3268;DHT22;1646;52.450;13.326;2023-04-15T00:00:58;10.10;99.90
3268;DHT22;1646;52.450;13.326;2023-04-15T00:05:58;10.30;99.90
3268;DHT22;1646;52.450;13.326;2023-04-15T00:10:56;10.20;99.90
3268;DHT22;1646;52.450;13.326;2023-04-15T00:15:59;10.20;99.90
3268;DHT22;1646;52.450;13.326;2023-04-15T00:20:58;10.20;99.90
3268;DHT22;1646;52.450;13.326;2023-04-15T00:25:57;10.20;99.90
3268;DHT22;1646;52.450;13.326;2023-04-15T00:31:13;10.20;99.90
3268;DHT22;1646;52.450;13.326;2023-04-15T00:36:14;10.20;99.90
3268;DHT22;1646;52.450;13.326;2023-04-15T00:41:12;10.20;99.90
3268;DHT22;1646;52.450;13.326;2023-04-15T00:46:12;10.20;99.90
3268;DHT22;1646;52.450;13.326;2023-04-15T00:51:13;10.20;99.90
3268;DHT22;1646;52.450;13.326;2023-04-15T00:56:11;10.30;99.90
3268;DHT22;1646;52.450;13.326;2023-04-15T01:01:10;10.30;99.90
3268;DHT22;1646;52.450;13.326;2023-04-15T01:06:09;10.20;99.90
3268;DHT22;1646;52.450;13.326;2023-04-15T01:11:09;10.30;99.90
3268;DHT22;1646;52.450;13.326;2023-04-15T01:16:10;10.30;99.90
3268;DHT22;1646;52.450;13.326;2023-04-15T01:21:09;10.20;99.90
3268;DHT22;1646;52.450;13.326;2023-04-15T01:26:09;10.20;99.90
3268;DHT22;1646;52.450;13.326;2023-04-15T01:31:09;10.20;99.90
3268;DHT22;1646;52.450;13.326;2023-04-15T01:36:08;10.20;99.90
3268;DHT22;1646;52.450;13.326;2023-04-15T01:41:08;10.30;99.90
3268;DHT22;1646;52.450;13.326;2023-04-15T01:46:07;10.30;99.90
3268;DHT22;1646;52.450;13.326;2023-04-15T01:51:05;10.30;99.90
3268;DHT22;1646;52.450;13.326;2023-04-15T01:56:04;10.30;99.90
3268;DHT22;1646;52.450;13.326;2023-04-15T02:01:04;10.30;99.90
3268;DHT22;1646;52.450;13.326;2023-04-15T02:06:03;10.30;99.90
3268;DHT22;1646;52.450;13.326;2023-04-15T02:11:02;10.30;99.90
3268;DHT22;1646;52.450;13.326;2023-04-15T02:16:01;10.30;99.90
3268;DHT22;1646;52.450;13.326;2023-04-15T02:21:01;10.40;99.90
3268;DHT22;1646;52.450;13.326;2023-04-15T02:26:01;10.40;99.90
3268;DHT22;1646;52.450;13.326;2023-04-15T02:31:04;10.50;99.90
3268;DHT22;1646;52.450;13.326;2023-04-15T02:36:04;10.50;99.90
3268;DHT22;1646;52.450;13.326;2023-04-15T02:41:03;10.40;99.90
3268;DHT22;1646;52.450;13.326;2023-04-15T02:46:04;10.50;99.90
3268;DHT22;1646;52.450;13.326;2023-04-15T02:51:14;10.50;99.90
3268;DHT22;1646;52.450;13.326;2023-04-15T02:56:13;10.50;99.90
3268;DHT22;1646;52.450;13.326;2023-04-15T03:01:13;10.50;99.90
3268;DHT22;1646;52.450;13.326;2023-04-15T03:06:11;10.40;99.90
3268;DHT22;1646;52.450;13.326;2023-04-15T03:11:11;10.50;99.90
3268;DHT22;1646;52.450;13.326;2023-04-15T03:16:10;10.60;99.90
3268;DHT22;1646;52.450;13.326;2023-04-15T03:21:08;10.50;99.90
3268;DHT22;1646;52.450;13.326;2023-04-15T03:26:08;10.50;99.90
3268;DHT22;1646;52.450;13.326;2023-04-15T03:31:07;10.60;99.90
3268;DHT22;1646;52.450;13.326;2023-04-15T03:36:06;10.60;99.90
3268;DHT22;1646;52.450;13.326;2023-04-15T03:41:04;10.60;99.90
3268;DHT22;1646;52.450;13.326;2023-04-15T03:46:03;10.60;99.90
3268;DHT22;1646;52.450;13.326;2023-04-15T03:51:03;10.60;99.90
3268;DHT22;1646;52.450;13.326;2023-04-15T03:56:01;10.60;99.90
3268;DHT22;1646;52.450;13.326;2023-04-15T04:01:00;10.70;99.90
3268;DHT22;1646;52.450;13.326;2023-04-15T04:05:59;10.70;99.90
3268;DHT22;1646;52.450;13.326;2023-04-15T04:10:58;10.70;99.90
3268;DHT22;1646;52.450;13.326;2023-04-15T04:15:56;10.70;99.90
3268;DHT22;1646;52.450;13.326;2023-04-15T04:20:55;10.70;99.90
3268;DHT22;1646;52.450;13.326;2023-04-15T04:25:53;10.90;99.90
3268;DHT22;1646;52.450;13.326;2023-04-15T04:30:52;10.90;99.90
3268;DHT22;1646;52.450;13.326;2023-04-15T04:35:51;10.80;99.90
3268;DHT22;1646;52.450;13.326;2023-04-15T04:40:49;10.80;99.90
3268;DHT22;1646;52.450;13.326;2023-04-15T04:45:47;10.90;99.90
3268;DHT22;1646;52.450;13.326;2023-04-15T04:50:47;10.90;99.90
3268;DHT22;1646;52.450;13.326;2023-04-15T04:55:45;11.10;99.90
3268;DHT22;1646;52.450;13.326;2023-04-15T05:00:43;10.90;99.90
3268;DHT22;1646;52.450;13.326;2023-04-15T05:05:42;11.00;99.90
3268;DHT22;1646;52.450;13.326;2023-04-15T05:10:41;11.00;99.90
3268;DHT22;1646;52.450;13.326;2023-04-15T05:15:39;11.00;99.90
3268;DHT22;1646;52.450;13.326;2023-04-15T05:20:39;11.00;99.90
3268;DHT22;1646;52.450;13.326;2023-04-15T05:25:37;11.00;99.90
3268;DHT22;1646;52.450;13.326;2023-04-15T05:30:37;11.10;99.90
3268;DHT22;1646;52.450;13.326;2023-04-15T05:35:36;11.10;99.90
3268;DHT22;1646;52.450;13.326;2023-04-15T05:40:34;11.10;99.90
3268;DHT22;1646;52.450;13.326;2023-04-15T05:45:32;11.20;99.90
3268;DHT22;1646;52.450;13.326;2023-04-15T05:50:32;11.20;99.90
3268;DHT22;1646;52.450;13.326;2023-04-15T05:55:30;11.40;99.90
3268;DHT22;1646;52.450;13.326;2023-04-15T06:00:28;11.40;99.90
3268;DHT22;1646;52.450;13.326;2023-04-15T06:05:27;11.50;99.90
3268;DHT22;1646;52.450;13.326;2023-04-15T06:10:26;11.70;99.90
3268;DHT22;1646;52.450;13.326;2023-04-15T06:15:25;11.80;99.90
3268;DHT22;1646;52.450;13.326;2023-04-15T06:20:23;11.90;99.90
3268;DHT22;1646;52.450;13.326;2023-04-15T06:25:21;11.90;99.90
3268;DHT22;1646;52.450;13.326;2023-04-15T06:30:21;11.90;99.90
3268;DHT22;1646;52.450;13.326;2023-04-15T06:35:20;11.80;99.90
3268;DHT22;1646;52.450;13.326;2023-04-15T06:40:18;11.90;99.90
3268;DHT22;1646;52.450;13.326;2023-04-15T06:45:17;12.00;99.90
3268;DHT22;1646;52.450;13.326;2023-04-15T06:50:16;12.10;99.90
3268;DHT22;1646;52.450;13.326;2023-04-15T06:55:15;12.30;99.90
3268;DHT22;1646;52.450;13.326;2023-04-15T07:00:13;12.60;99.90
3268;DHT22;1646;52.450;13.326;2023-04-15T07:05:12;12.80;99.90
3268;DHT22;1646;52.450;13.326;2023-04-15T07:10:12;12.80;99.90
3268;DHT22;1646;52.450;13.326;2023-04-15T07:15:10;12.70;99.90
3268;DHT22;1646;52.450;13.326;2023-04-15T07:20:10;12.80;99.90
3268;DHT22;1646;52.450;13.326;2023-04-15T07:25:09;12.70;99.90
3268;DHT22;1646;52.450;13.326;2023-04-15T07:30:09;12.50;99.90
3268;DHT22;1646;52.450;13.326;2023-04-15T07:35:08;12.40;99.90
3268;DHT22;1646;52.450;13.326;2023-04-15T07:40:08;12.30;99.90
3268;DHT22;1646;52.450;13.326;2023-04-15T07:45:09;12.20;99.90
3268;DHT22;1646;52.450;13.326;2023-04-15T07:50:09;12.10;99.90
3268;DHT22;1646;52.450;13.326;2023-04-15T07:55:08;12.10;99.90
3268;DHT22;1646;52.450;13.326;2023-04-15T08:00:09;12.00;99.90
3268;DHT22;1646;52.450;13.326;2023-04-15T08:05:10;12.00;99.90
3268;DHT22;1646;52.450;13.326;2023-04-15T08:10:09;12.00;99.90
3268;DHT22;1646;52.450;13.326;2023-04-15T08:15:10;11.90;99.90
3268;DHT22;1646;52.450;13.326;2023-04-15T08:20:09;11.90;99.90
3268;DHT22;1646;52.450;13.326;2023-04-15T08:25:08;11.80;99.90
3268;DHT22;1646;52.450;13.326;2023-04-15T08:30:09;11.80;99.90
3268;DHT22;1646;52.450;13.326;2023-04-15T08:35:08;12.00;99.90
3268;DHT22;1646;52.450;13.326;2023-04-15T08:40:07;11.90;99.90
3268;DHT22;1646;52.450;13.326;2023-04-15T08:45:09;11.90;99.90
3268;DHT22;1646;52.450;13.326;2023-04-15T08:50:09;11.90;99.90
3268;DHT22;1646;52.450;13.326;2023-04-15T08:55:08;11.90;99.90
3268;DHT22;1646;52.450;13.326;2023-04-15T09:00:10;11.90;99.90
3268;DHT22;1646;52.450;13.326;2023-04-15T09:05:09;11.90;99.90
3268;DHT22;1646;52.450;13.326;2023-04-15T09:10:09;12.00;99.90
3268;DHT22;1646;52.450;13.326;2023-04-15T09:15:11;12.10;99.90
3268;DHT22;1646;52.450;13.326;2023-04-15T09:20:10;12.10;99.90
3268;DHT22;1646;52.450;13.326;2023-04-15T09:25:28;12.10;99.90
3268;DHT22;1646;52.450;13.326;2023-04-15T09:30:32;12.20;99.90
3268;DHT22;1646;52.450;13.326;2023-04-15T09:35:30;12.30;99.90
3268;DHT22;1646;52.450;13.326;2023-04-15T09:40:33;12.30;99.90
3268;DHT22;1646;52.450;13.326;2023-04-15T09:45:34;12.20;99.90
3268;DHT22;1646;52.450;13.326;2023-04-15T09:50:39;12.20;99.90
3268;DHT22;1646;52.450;13.326;2023-04-15T09:55:38;12.20;99.90
3268;DHT22;1646;52.450;13.326;2023-04-15T10:00:38;12.20;99.90
3268;DHT22;1646;52.450;13.326;2023-04-15T10:05:36;12.20;99.90
3268;DHT22;1646;52.450;13.326;2023-04-15T10:10:35;12.20;99.90
3268;DHT22;1646;52.450;13.326;2023-04-15T10:15:37;12.10;99.90
3268;DHT22;1646;52.450;13.326;2023-04-15T10:20:37;12.10;99.90
3268;DHT22;1646;52.450;13.326;2023-04-15T10:25:35;12.10;99.90
3268;DHT22;1646;52.450;13.326;2023-04-15T10:30:35;12.10;99.90
3268;DHT22;1646;52.450;13.326;2023-04-15T10:35:35;12.00;99.90
3268;DHT22;1646;52.450;13.326;2023-04-15T10:40:35;12.00;99.90
3268;DHT22;1646;52.450;13.326;2023-04-15T10:45:36;12.10;99.90
3268;DHT22;1646;52.450;13.326;2023-04-15T10:50:36;12.20;99.90
3268;DHT22;1646;52.450;13.326;2023-04-15T10:55:35;12.40;99.90
3268;DHT22;1646;52.450;13.326;2023-04-15T11:00:36;12.60;99.90
3268;DHT22;1646;52.450;13.326;2023-04-15T11:05:50;12.70;99.90
3268;DHT22;1646;52.450;13.326;2023-04-15T11:10:50;12.70;99.90
3268;DHT22;1646;52.450;13.326;2023-04-15T11:15:49;12.60;99.90
3268;DHT22;1646;52.450;13.326;2023-04-15T11:20:50;12.60;99.90
3268;DHT22;1646;52.450;13.326;2023-04-15T11:25:50;12.60;99.90
3268;DHT22;1646;52.450;13.326;2023-04-15T11:30:48;12.50;99.90
3268;DHT22;1646;52.450;13.326;2023-04-15T11:35:48;12.40;99.90
3268;DHT22;1646;52.450;13.326;2023-04-15T11:40:47;12.40;99.90
3268;DHT22;1646;52.450;13.326;2023-04-15T11:45:51;12.40;99.90
3268;DHT22;1646;52.450;13.326;2023-04-15T11:50:55;12.50;99.90
3268;DHT22;1646;52.450;13.326;2023-04-15T11:55:53;12.50;99.90
3268;DHT22;1646;52.450;13.326;2023-04-15T12:00:53;12.50;99.90
3268;DHT22;1646;52.450;13.326;2023-04-15T12:06:10;12.50;99.90
3268;DHT22;1646;52.450;13.326;2023-04-15T12:11:08;12.60;99.90
3268;DHT22;1646;52.450;13.326;2023-04-15T12:16:07;12.70;99.90
3268;DHT22;1646;52.450;13.326;2023-04-15T12:21:10;12.70;99.90
3268;DHT22;1646;52.450;13.326;2023-04-15T12:26:09;12.70;99.90
3268;DHT22;1646;52.450;13.326;2023-04-15T12:31:08;12.90;99.90
3268;DHT22;1646;52.450;13.326;2023-04-15T12:36:07;12.90;99.90
3268;DHT22;1646;52.450;13.326;2023-04-15T12:41:06;13.10;99.90
3268;DHT22;1646;52.450;13.326;2023-04-15T12:46:05;13.30;99.90
3268;DHT22;1646;52.450;13.326;2023-04-15T12:51:04;13.30;99.90
3268;DHT22;1646;52.450;13.326;2023-04-15T12:56:03;13.30;99.90
3268;DHT22;1646;52.450;13.326;2023-04-15T13:01:02;13.30;99.90
3268;DHT22;1646;52.450;13.326;2023-04-15T13:06:01;13.30;99.90
3268;DHT22;1646;52.450;13.326;2023-04-15T13:11:00;13.40;99.90
3268;DHT22;1646;52.450;13.326;2023-04-15T13:15:59;13.50;99.90
3268;DHT22;1646;52.450;13.326;2023-04-15T13:20:58;13.60;99.90
3268;DHT22;1646;52.450;13.326;2023-04-15T13:25:58;13.70;99.90
3268;DHT22;1646;52.450;13.326;2023-04-15T13:30:56;13.60;99.90
3268;DHT22;1646;52.450;13.326;2023-04-15T13:35:57;13.60;99.90
3268;DHT22;1646;52.450;13.326;2023-04-15T13:40:55;13.50;99.90
3268;DHT22;1646;52.450;13.326;2023-04-15T13:45:54;13.60;99.90
3268;DHT22;1646;52.450;13.326;2023-04-15T13:50:52;13.60;99.90
3268;DHT22;1646;52.450;13.326;2023-04-15T13:55:52;13.50;99.90
3268;DHT22;1646;52.450;13.326;2023-04-15T14:00:50;13.40;99.90
3268;DHT22;1646;52.450;13.326;2023-04-15T14:05:49;13.40;99.90
3268;DHT22;1646;52.450;13.326;2023-04-15T14:10:53;13.40;99.90
3268;DHT22;1646;52.450;13.326;2023-04-15T14:15:51;13.40;99.90
3268;DHT22;1646;52.450;13.326;2023-04-15T14:20:49;13.30;99.90
3268;DHT22;1646;52.450;13.326;2023-04-15T14:25:47;13.20;99.90
3268;DHT22;1646;52.450;13.326;2023-04-15T14:30:47;13.20;99.90
3268;DHT22;1646;52.450;13.326;2023-04-15T14:35:45;13.20;99.90
3268;DHT22;1646;52.450;13.326;2023-04-15T14:40:44;13.00;99.90
3268;DHT22;1646;52.450;13.326;2023-04-15T14:45:42;13.00;99.90
3268;DHT22;1646;52.450;13.326;2023-04-15T14:50:42;12.90;99.90
3268;DHT22;1646;52.450;13.326;2023-04-15T14:55:40;12.90;99.90
3268;DHT22;1646;52.450;13.326;2023-04-15T15:00:39;12.90;99.90
3268;DHT22;1646;52.450;13.326;2023-04-15T15:05:42;12.90;99.90
3268;DHT22;1646;52.450;13.326;2023-04-15T15:10:41;12.90;99.90
3268;DHT22;1646;52.450;13.326;2023-04-15T15:15:45;12.90;99.90
3268;DHT22;1646;52.450;13.326;2023-04-15T15:20:47;12.90;99.90
3268;DHT22;1646;52.450;13.326;2023-04-15T15:25:45;12.90;99.90
3268;DHT22;1646;52.450;13.326;2023-04-15T15:30:44;12.90;99.90
3268;DHT22;1646;52.450;13.326;2023-04-15T15:35:42;12.80;99.90
3268;DHT22;1646;52.450;13.326;2023-04-15T15:40:42;12.80;99.90
3268;DHT22;1646;52.450;13.326;2023-04-15T15:45:40;12.80;99.90
3268;DHT22;1646;52.450;13.326;2023-04-15T15:50:39;12.80;99.90
3268;DHT22;1646;52.450;13.326;2023-04-15T15:55:37;12.80;99.90
3268;DHT22;1646;52.450;13.326;2023-04-15T16:00:36;12.80;99.90
3268;DHT22;1646;52.450;13.326;2023-04-15T16:05:35;12.80;99.90
3268;DHT22;1646;52.450;13.326;2023-04-15T16:10:33;12.70;99.90
3268;DHT22;1646;52.450;13.326;2023-04-15T16:15:31;12.70;99.90
3268;DHT22;1646;52.450;13.326;2023-04-15T16:20:31;12.80;99.90
3268;DHT22;1646;52.450;13.326;2023-04-15T16:25:29;12.80;99.90
3268;DHT22;1646;52.450;13.326;2023-04-15T16:30:28;12.70;99.90
3268;DHT22;1646;52.450;13.326;2023-04-15T16:35:26;12.70;99.90
3268;DHT22;1646;52.450;13.326;2023-04-15T16:40:25;12.70;99.90
3268;DHT22;1646;52.450;13.326;2023-04-15T16:45:24;12.70;99.90
3268;DHT22;1646;52.450;13.326;2023-04-15T16:50:22;12.60;99.90
3268;DHT22;1646;52.450;13.326;2023-04-15T16:55:21;12.60;99.90
3268;DHT22;1646;52.450;13.326;2023-04-15T17:00:20;12.60;99.90
3268;DHT22;1646;52.450;13.326;2023-04-15T17:05:19;12.60;99.90
3268;DHT22;1646;52.450;13.326;2023-04-15T17:10:17;12.60;99.90
3268;DHT22;1646;52.450;13.326;2023-04-15T17:15:15;12.70;99.90
3268;DHT22;1646;52.450;13.326;2023-04-15T17:20:15;12.70;99.90
3268;DHT22;1646;52.450;13.326;2023-04-15T17:25:14;12.70;99.90
3268;DHT22;1646;52.450;13.326;2023-04-15T17:30:12;12.70;99.90
3268;DHT22;1646;52.450;13.326;2023-04-15T17:35:10;12.70;99.90
3268;DHT22;1646;52.450;13.326;2023-04-15T17:40:11;12.70;99.90
3268;DHT22;1646;52.450;13.326;2023-04-15T17:45:10;12.70;99.90
3268;DHT22;1646;52.450;13.326;2023-04-15T17:50:09;12.70;99.90
3268;DHT22;1646;52.450;13.326;2023-04-15T17:55:07;12.70;99.90
3268;DHT22;1646;52.450;13.326;2023-04-15T18:00:08;12.70;99.90
3268;DHT22;1646;52.450;13.326;2023-04-15T18:05:09;12.70;99.90
3268;DHT22;1646;52.450;13.326;2023-04-15T18:10:08;12.60;99.90
3268;DHT22;1646;52.450;13.326;2023-04-15T18:15:09;12.60;99.90
3268;DHT22;1646;52.450;13.326;2023-04-15T18:20:08;12.50;99.90
3268;DHT22;1646;52.450;13.326;2023-04-15T18:25:07;12.60;99.90
3268;DHT22;1646;52.450;13.326;2023-04-15T18:30:08;12.50;99.90
3268;DHT22;1646;52.450;13.326;2023-04-15T18:35:08;12.50;99.90
3268;DHT22;1646;52.450;13.326;2023-04-15T18:40:07;12.60;99.90
3268;DHT22;1646;52.450;13.326;2023-04-15T18:45:07;12.50;99.90
3268;DHT22;1646;52.450;13.326;2023-04-15T18:50:07;12.50;99.90
3268;DHT22;1646;52.450;13.326;2023-04-15T18:55:06;12.60;99.90
3268;DHT22;1646;52.450;13.326;2023-04-15T19:00:05;12.60;99.90
3268;DHT22;1646;52.450;13.326;2023-04-15T19:05:05;12.50;99.90
3268;DHT22;1646;52.450;13.326;2023-04-15T19:10:04;12.50;99.90
3268;DHT22;1646;52.450;13.326;2023-04-15T19:15:03;12.50;99.90
3268;DHT22;1646;52.450;13.326;2023-04-15T19:20:01;12.50;99.90
3268;DHT22;1646;52.450;13.326;2023-04-15T19:25:01;12.40;99.90
3268;DHT22;1646;52.450;13.326;2023-04-15T19:29:59;12.40;99.90
3268;DHT22;1646;52.450;13.326;2023-04-15T19:34:59;12.40;99.90
3268;DHT22;1646;52.450;13.326;2023-04-15T19:39:57;12.40;99.90
3268;DHT22;1646;52.450;13.326;2023-04-15T19:44:57;12.40;99.90
3268;DHT22;1646;52.450;13.326;2023-04-15T19:49:55;12.40;99.90
3268;DHT22;1646;52.450;13.326;2023-04-15T19:54:53;12.40;99.90
3268;DHT22;1646;52.450;13.326;2023-04-15T19:59:51;12.50;99.90
3268;DHT22;1646;52.450;13.326;2023-04-15T20:04:51;12.30;99.90
3268;DHT22;1646;52.450;13.326;2023-04-15T20:09:49;12.30;99.90
3268;DHT22;1646;52.450;13.326;2023-04-15T20:14:48;12.20;99.90
3268;DHT22;1646;52.450;13.326;2023-04-15T20:19:46;12.30;99.90
3268;DHT22;1646;52.450;13.326;2023-04-15T20:24:46;12.20;99.90
3268;DHT22;1646;52.450;13.326;2023-04-15T20:29:44;12.20;99.90
3268;DHT22;1646;52.450;13.326;2023-04-15T20:34:42;12.20;99.90
3268;DHT22;1646;52.450;13.326;2023-04-15T20:39:41;12.20;99.90
3268;DHT22;1646;52.450;13.326;2023-04-15T20:44:40;12.10;99.90
3268;DHT22;1646;52.450;13.326;2023-04-15T20:49:39;12.10;99.90
3268;DHT22;1646;52.450;13.326;2023-04-15T20:54:37;12.20;99.90
3268;DHT22;1646;52.450;13.326;2023-04-15T20:59:35;12.20;99.90
3268;DHT22;1646;52.450;13.326;2023-04-15T21:04:35;12.10;99.90
3268;DHT22;1646;52.450;13.326;2023-04-15T21:09:34;12.20;99.90
3268;DHT22;1646;52.450;13.326;2023-04-15T21:14:34;12.20;99.90
3268;DHT22;1646;52.450;13.326;2023-04-15T21:19:35;12.10;99.90
3268;DHT22;1646;52.450;13.326;2023-04-15T21:24:33;12.10;99.90
3268;DHT22;1646;52.450;13.326;2023-04-15T21:29:31;12.00;99.90
3268;DHT22;1646;52.450;13.326;2023-04-15T21:34:30;12.00;99.90
3268;DHT22;1646;52.450;13.326;2023-04-15T21:39:29;12.00;99.90
3268;DHT22;1646;52.450;13.326;2023-04-15T21:44:28;12.00;99.90
3268;DHT22;1646;52.450;13.326;2023-04-15T21:49:26;12.00;99.90
3268;DHT22;1646;52.450;13.326;2023-04-15T21:54:24;12.00;99.90
3268;DHT22;1646;52.450;13.326;2023-04-15T21:59:24;12.00;99.90
3268;DHT22;1646;52.450;13.326;2023-04-15T22:04:23;12.00;99.90
3268;DHT22;1646;52.450;13.326;2023-04-15T22:09:21;12.00;99.90
3268;DHT22;1646;52.450;13.326;2023-04-15T22:14:19;12.10;99.90
3268;DHT22;1646;52.450;13.326;2023-04-15T22:19:19;12.10;99.90
3268;DHT22;1646;52.450;13.326;2023-04-15T22:24:17;12.00;99.90
3268;DHT22;1646;52.450;13.326;2023-04-15T22:29:36;12.00;99.90
3268;DHT22;1646;52.450;13.326;2023-04-15T22:34:35;12.00;99.90
3268;DHT22;1646;52.450;13.326;2023-04-15T22:39:33;12.00;99.90
3268;DHT22;1646;52.450;13.326;2023-04-15T22:44:32;12.00;99.90
3268;DHT22;1646;52.450;13.326;2023-04-15T22:49:30;12.00;99.90
3268;DHT22;1646;52.450;13.326;2023-04-15T22:54:32;12.00;99.90
3268;DHT22;1646;52.450;13.326;2023-04-15T22:59:30;12.20;99.90
3268;DHT22;1646;52.450;13.326;2023-04-15T23:04:28;12.00;99.90
3268;DHT22;1646;52.450;13.326;2023-04-15T23:09:27;12.00;99.90
3268;DHT22;1646;52.450;13.326;2023-04-15T23:14:27;12.00;99.90
3268;DHT22;1646;52.450;13.326;2023-04-15T23:19:25;12.00;99.90
3268;DHT22;1646;52.450;13.326;2023-04-15T23:24:24;12.10;99.90
3268;DHT22;1646;52.450;13.326;2023-04-15T23:29:22;12.10;99.90
3268;DHT22;1646;52.450;13.326;2023-04-15T23:34:21;12.10;99.90
3268;DHT22;1646;52.450;13.326;2023-04-15T23:39:20;12.10;99.90
3268;DHT22;1646;52.450;13.326;2023-04-15T23:44:19;12.00;99.90
3268;DHT22;1646;52.450;13.326;2023-04-15T23:49:17;12.00;99.90
3268;DHT22;1646;52.450;13.326;2023-04-15T23:54:17;12.00;99.90
3268;DHT22;1646;52.450;13.326;2023-04-15T23:59:16;12.00;99.90
